Terminal Aerodrome Forecast
Issued by NWS

Home | Current Version | Previous Version | Text Only | Print | Product List | Glossary On
Versions: 1 2 3 4 5 6 7 8 9 10 11 12 13 14 15 16 17 18 19 20 21 22 23 24 25 26 27 28 29 30 31 32 33
000
FTUS43 KLOT 282300
TAFMDW
TAF
KMDW 282326Z 0100/0124 15006KT P6SM OVC150
     FM010300 16006KT 2SM -SN BR OVC015
     FM010700 20005KT P6SM OVC015
     FM011600 25008KT P6SM OVC025=

USA.gov is the U.S. government's official web portal to all federal, state and local government web resources and services.